Time;durP1;ratioP1;P1;durP2;ratioP2;P2;SDS_P1;SDS_P2;PMS_P1;PMS_P2;Temp;Humidity;BMP_temperature;BMP_pressure;BME280_temperature;BME280_humidity;BME280_pressure;Samples;Min_cycle;Max_cycle;Signal;HPM_P1;HPM_P2
2022/01/10 00:02:07;;;;;;;43.33;21.50;;;;;;;0.20;97.23;101015.81;5076151;28;20658;-83
2022/01/10 00:04:32;;;;;;;34.80;21.27;;;;;;;0.20;96.77;101021.00;5073269;28;20073;-84
2022/01/10 00:06:57;;;;;;;40.08;20.80;;;;;;;0.21;97.14;101027.84;5090427;28;20024;-84
2022/01/10 00:09:23;;;;;;;43.60;21.73;;;;;;;0.16;96.31;101038.34;5085947;28;20409;-83
2022/01/10 00:11:48;;;;;;;43.35;20.48;;;;;;;0.15;96.78;101038.38;5087526;28;20692;-84
2022/01/10 00:14:14;;;;;;;38.13;20.52;;;;;;;0.14;97.10;101047.03;5080749;28;20031;-84
2022/01/10 00:16:39;;;;;;;38.70;21.52;;;;;;;0.16;97.26;101050.44;5090655;28;20077;-81
2022/01/10 00:19:05;;;;;;;41.42;21.60;;;;;;;0.10;96.69;101046.28;5091247;28;20033;-82
2022/01/10 00:21:31;;;;;;;38.33;21.17;;;;;;;0.11;96.27;101052.31;5089030;28;20466;-82
2022/01/10 00:23:56;;;;;;;42.60;22.10;;;;;;;0.11;96.91;101057.47;5085451;28;20119;-81
2022/01/10 00:26:21;;;;;;;43.08;21.65;;;;;;;0.11;96.95;101060.91;5080938;28;20107;-81
2022/01/10 00:28:46;;;;;;;39.90;21.85;;;;;;;0.14;97.04;101062.56;5086115;28;20384;-81
2022/01/10 00:31:12;;;;;;;40.92;22.42;;;;;;;0.08;96.83;101053.22;5095056;28;20052;-82
2022/01/10 00:33:37;;;;;;;41.42;21.73;;;;;;;0.09;96.51;101061.84;5100778;28;20044;-81
2022/01/10 00:36:03;;;;;;;39.92;21.10;;;;;;;0.06;96.31;101059.34;5088522;28;20441;-82
2022/01/10 00:38:28;;;;;;;41.30;22.00;;;;;;;0.05;96.78;101060.22;5088014;28;20082;-82
2022/01/10 00:40:54;;;;;;;39.67;22.02;;;;;;;0.04;96.66;101059.38;5082697;28;20071;-82
2022/01/10 00:43:33;;;;;;;39.58;21.52;;;;;;;-0.01;96.55;101058.63;5074067;28;20024;-81
2022/01/10 00:46:00;;;;;;;48.83;22.83;;;;;;;0.02;97.26;101062.91;5072959;28;20054;-81
2022/01/10 00:48:26;;;;;;;43.28;22.83;;;;;;;0.02;97.34;101073.25;5104183;28;20020;-82
2022/01/10 00:50:51;;;;;;;43.78;22.63;;;;;;;0.01;96.98;101074.13;5075042;28;20020;-82
2022/01/10 00:53:17;;;;;;;39.20;22.90;;;;;;;0.02;96.80;101083.59;5088778;28;20099;-82
2022/01/10 00:55:42;;;;;;;37.70;21.90;;;;;;;0.02;97.44;101093.94;5089336;28;20077;-82
2022/01/10 00:58:08;;;;;;;44.53;22.35;;;;;;;-0.01;97.05;101095.69;5090001;28;20024;-81
2022/01/10 01:00:33;;;;;;;41.15;21.77;;;;;;;-0.05;96.60;101094.06;5081940;28;20064;-81
2022/01/10 01:02:59;;;;;;;44.42;22.65;;;;;;;-0.05;96.48;101103.56;5080578;28;20028;-81
2022/01/10 01:05:25;;;;;;;43.60;23.02;;;;;;;-0.04;96.77;101105.25;5085613;28;20111;-82
2022/01/10 01:07:51;;;;;;;44.83;22.75;;;;;;;-0.07;96.85;101105.34;5088227;28;20106;-81
2022/01/10 01:13:19;;;;;;;45.47;23.42;;;;;;;-0.06;97.40;101117.38;5080846;28;20029;-82
2022/01/10 01:15:45;;;;;;;40.15;21.63;;;;;;;-0.12;96.92;101121.00;5082705;28;20036;-82
2022/01/10 01:18:17;;;;;;;42.25;21.85;;;;;;;-0.11;96.87;101134.75;5082066;28;20024;-81
2022/01/10 01:23:58;;;;;;;41.80;22.13;;;;;;;-0.18;96.33;101147.00;5087442;28;20035;-82
2022/01/10 01:26:14;;;;;;;44.50;22.45;;;;;;;-0.17;96.56;101146.13;5088291;28;20510;-81
2022/01/10 01:28:39;;;;;;;38.90;22.77;;;;;;;-0.18;96.77;101149.59;5088979;28;20102;-82
2022/01/10 01:31:04;;;;;;;40.33;21.77;;;;;;;-0.18;96.63;101152.19;5087347;28;20113;-81
2022/01/10 01:33:30;;;;;;;41.03;22.25;;;;;;;-0.19;97.05;101160.81;5086745;28;20059;-81
2022/01/10 01:35:55;;;;;;;40.67;22.30;;;;;;;-0.21;96.70;101159.16;5088722;28;20035;-82
2022/01/10 01:38:21;;;;;;;40.40;21.02;;;;;;;-0.24;96.49;101157.50;5103965;28;20492;-82
2022/01/10 01:40:55;;;;;;;43.28;22.85;;;;;;;-0.27;96.37;101162.75;5087396;28;20028;-82
2022/01/10 01:43:20;;;;;;;45.60;22.73;;;;;;;-0.27;96.51;101159.31;5092772;28;20047;-81
2022/01/10 01:45:48;;;;;;;43.90;22.63;;;;;;;-0.33;96.89;101171.50;5074059;28;20172;-81
2022/01/10 01:48:14;;;;;;;37.22;21.55;;;;;;;-0.32;96.75;101177.53;5087398;28;21619;-82
2022/01/10 01:50:41;;;;;;;41.25;22.27;;;;;;;-0.32;96.29;101187.88;5102768;28;20027;-81
2022/01/10 01:53:07;;;;;;;42.03;23.25;;;;;;;-0.33;97.52;101189.59;5086300;28;20031;-81
2022/01/10 01:55:33;;;;;;;45.45;23.95;;;;;;;-0.34;97.28;101185.31;5074683;28;20388;-81
2022/01/10 01:57:59;;;;;;;43.25;22.25;;;;;;;-0.32;96.65;101200.78;5084825;28;20055;-81
2022/01/10 02:00:25;;;;;;;49.15;23.77;;;;;;;-0.37;96.70;101200.06;5078216;28;20028;-82
2022/01/10 02:02:52;;;;;;;43.22;22.67;;;;;;;-0.34;96.89;101200.81;5073780;28;20033;-82
2022/01/10 02:05:18;;;;;;;46.88;23.42;;;;;;;-0.34;97.69;101205.16;5085820;28;20031;-81
2022/01/10 02:07:44;;;;;;;45.50;23.80;;;;;;;-0.36;97.12;101194.00;5081422;28;20049;-81
2022/01/10 02:10:10;;;;;;;48.58;23.88;;;;;;;-0.34;97.61;101206.00;5085602;28;20366;-81
2022/01/10 02:12:36;;;;;;;39.65;22.80;;;;;;;-0.34;96.89;101206.00;5083270;28;20032;-81
2022/01/10 02:15:01;;;;;;;48.58;24.02;;;;;;;-0.36;97.75;101202.59;5081632;28;20510;-82
2022/01/10 02:17:34;;;;;;;49.20;23.98;;;;;;;-0.35;97.25;101203.44;5086218;28;20450;-81
2022/01/10 02:20:01;;;;;;;44.13;23.42;;;;;;;-0.33;97.75;101222.34;5087087;28;20028;-81
2022/01/10 02:22:27;;;;;;;49.85;23.30;;;;;;;-0.32;97.44;101218.88;5085347;28;20511;-81
2022/01/10 02:24:52;;;;;;;49.30;23.77;;;;;;;-0.32;97.67;101222.31;5088170;28;20039;-81
2022/01/10 02:27:22;;;;;;;47.10;24.38;;;;;;;-0.31;97.70;101220.59;5097692;28;20480;-81
2022/01/10 02:29:47;;;;;;;43.47;22.85;;;;;;;-0.34;97.54;101220.66;5085242;28;20123;-81
2022/01/10 02:32:13;;;;;;;44.05;24.08;;;;;;;-0.35;97.76;101224.13;5082165;28;20503;-82
2022/01/10 02:34:38;;;;;;;38.22;22.70;;;;;;;-0.35;97.70;101227.56;5088091;28;20081;-81
2022/01/10 02:37:04;;;;;;;52.95;25.45;;;;;;;-0.33;97.66;101232.69;5101792;28;20020;-82
2022/01/10 02:39:29;;;;;;;49.65;24.52;;;;;;;-0.34;98.15;101228.41;5079972;28;20024;-81
2022/01/10 02:41:54;;;;;;;48.88;23.48;;;;;;;-0.30;97.86;101247.28;5096225;28;20027;-81
2022/01/10 02:44:20;;;;;;;48.92;23.88;;;;;;;-0.32;98.16;101255.06;5087303;28;20077;-81
2022/01/10 02:46:46;;;;;;;46.80;25.10;;;;;;;-0.30;97.98;101257.63;5087514;28;20020;-81
2022/01/10 02:49:22;;;;;;;47.42;24.40;;;;;;;-0.28;98.59;101269.63;5088087;28;20035;-81
2022/01/10 02:51:48;;;;;;;49.83;25.25;;;;;;;-0.30;98.05;101263.66;5078189;28;20031;-81
2022/01/10 02:54:14;;;;;;;49.38;24.80;;;;;;;-0.27;97.83;101273.91;5081232;28;20032;-83
2022/01/10 02:56:47;;;;;;;45.10;23.67;;;;;;;-0.25;98.55;101282.50;5087558;28;20034;-83
2022/01/10 02:59:13;;;;;;;43.15;24.58;;;;;;;-0.19;98.52;101302.19;5086817;28;20028;-83
2022/01/10 03:01:39;;;;;;;48.67;26.27;;;;;;;-0.22;98.25;101292.75;5078822;28;20029;-84
2022/01/10 03:04:04;;;;;;;45.92;23.23;;;;;;;-0.23;98.52;101288.47;5089358;28;20480;-83
2022/01/10 03:06:29;;;;;;;50.35;23.95;;;;;;;-0.23;98.58;101292.78;5079152;28;20111;-84
2022/01/10 03:08:55;;;;;;;41.00;23.00;;;;;;;-0.21;98.71;101303.94;5077734;28;20054;-83
2022/01/10 03:11:20;;;;;;;40.60;23.20;;;;;;;-0.21;98.45;101304.81;5080951;28;20042;-82
2022/01/10 03:13:46;;;;;;;47.47;23.33;;;;;;;-0.22;98.21;101308.28;5085861;28;20050;-81
2022/01/10 03:16:14;;;;;;;42.67;23.55;;;;;;;-0.19;97.88;101312.53;5104404;28;20074;-82
2022/01/10 03:18:39;;;;;;;42.13;23.83;;;;;;;-0.18;97.50;101314.22;5082486;28;20031;-82
2022/01/10 03:21:05;;;;;;;39.08;22.83;;;;;;;-0.24;98.03;101307.47;5090177;28;20558;-82
2022/01/10 03:23:31;;;;;;;43.05;23.08;;;;;;;-0.20;98.28;101319.44;5072065;28;20028;-81
2022/01/10 03:25:56;;;;;;;40.25;21.98;;;;;;;-0.19;98.38;101325.44;5071748;28;20048;-82
2022/01/10 03:28:22;;;;;;;44.45;24.40;;;;;;;-0.19;97.94;101321.13;5085495;28;20472;-82
2022/01/10 03:30:47;;;;;;;45.25;24.10;;;;;;;-0.19;98.04;101328.88;5097856;28;20031;-82
2022/01/10 03:33:13;;;;;;;44.22;23.05;;;;;;;-0.20;97.50;101327.19;5090244;28;20051;-82
2022/01/10 03:35:38;;;;;;;40.80;21.70;;;;;;;-0.23;97.72;101332.44;5089259;28;20162;-82
2022/01/10 03:38:04;;;;;;;42.15;23.27;;;;;;;-0.20;97.50;101347.03;5106547;28;20114;-81
2022/01/10 03:40:29;;;;;;;37.67;22.27;;;;;;;-0.21;97.53;101346.16;5089933;28;20020;-82
2022/01/10 03:42:55;;;;;;;43.35;23.65;;;;;;;-0.23;98.20;101353.09;5087423;28;20111;-81
2022/01/10 03:45:20;;;;;;;43.08;22.92;;;;;;;-0.21;97.73;101368.59;5096434;28;20051;-81
2022/01/10 03:47:46;;;;;;;45.22;22.23;;;;;;;-0.21;97.66;101372.03;5081535;28;20028;-81
2022/01/10 03:50:14;;;;;;;44.25;23.77;;;;;;;-0.22;97.65;101370.31;5088385;28;20028;-82
2022/01/10 03:52:41;;;;;;;45.05;23.52;;;;;;;-0.20;97.21;101388.41;5088833;28;20471;-81
2022/01/10 03:55:07;;;;;;;37.70;22.40;;;;;;;-0.22;98.10;101388.44;5089720;28;20444;-81
2022/01/10 03:57:32;;;;;;;41.38;22.00;;;;;;;-0.25;97.60;101385.06;5090597;28;20024;-81
2022/01/10 03:59:57;;;;;;;48.10;23.90;;;;;;;-0.25;97.59;101391.06;5079934;28;20461;-81
2022/01/10 04:02:25;;;;;;;46.70;23.35;;;;;;;-0.22;97.92;101395.34;5088591;28;20123;-81
2022/01/10 04:04:50;;;;;;;44.33;23.42;;;;;;;-0.24;98.14;101397.09;5090738;28;20016;-81
2022/01/10 04:07:17;;;;;;;44.05;24.00;;;;;;;-0.21;98.11;101408.22;5081489;28;20476;-81
2022/01/10 04:09:43;;;;;;;42.22;23.83;;;;;;;-0.20;98.21;101409.94;5089138;28;20191;-81
2022/01/10 04:12:08;;;;;;;46.40;24.80;;;;;;;-0.21;98.37;101397.03;5089910;28;20573;-81
2022/01/10 04:14:34;;;;;;;48.63;23.63;;;;;;;-0.24;98.22;101395.38;5082767;28;20033;-81
2022/01/10 04:16:59;;;;;;;48.10;24.75;;;;;;;-0.19;98.65;101401.28;5083394;28;20111;-81
2022/01/10 04:19:25;;;;;;;50.03;24.98;;;;;;;-0.20;98.51;101403.91;5077046;28;20021;-81
2022/01/10 04:21:50;;;;;;;45.97;23.98;;;;;;;-0.15;98.70;101417.59;5070991;28;20025;-81
2022/01/10 04:24:15;;;;;;;45.05;24.48;;;;;;;-0.19;98.46;101413.38;5081987;28;20099;-82
2022/01/10 04:26:41;;;;;;;47.13;24.25;;;;;;;-0.16;98.24;101421.91;5089964;28;20028;-81
2022/01/10 04:29:07;;;;;;;46.08;24.52;;;;;;;-0.21;97.97;101423.75;5088378;28;20034;-81
2022/01/10 04:31:32;;;;;;;46.60;24.98;;;;;;;-0.19;98.68;101418.53;5089579;28;20479;-81
2022/01/10 04:33:57;;;;;;;48.90;25.08;;;;;;;-0.16;98.88;101426.22;5080808;28;20040;-81
2022/01/10 04:36:23;;;;;;;52.50;25.42;;;;;;;-0.17;98.38;101434.88;5088828;28;20391;-81
2022/01/10 04:38:49;;;;;;;57.33;27.20;;;;;;;-0.15;98.76;101438.28;5089859;28;20059;-81
2022/01/10 04:41:14;;;;;;;54.15;27.10;;;;;;;-0.15;98.96;101459.81;5081303;28;20024;-82
2022/01/10 04:43:39;;;;;;;51.00;25.98;;;;;;;-0.11;98.96;101455.44;5088920;28;20032;-81
2022/01/10 04:46:05;;;;;;;51.63;26.05;;;;;;;-0.09;99.43;101464.84;5088092;28;20461;-81
2022/01/10 04:48:30;;;;;;;53.83;27.35;;;;;;;-0.12;99.13;101462.34;5088321;28;20024;-82
2022/01/10 04:53:21;;;;;;;49.75;26.75;;;;;;;-0.06;99.46;101489.81;5088288;28;20032;-81
2022/01/10 04:55:46;;;;;;;53.17;28.02;;;;;;;-0.07;99.12;101482.94;5089816;28;20178;-81
2022/01/10 04:58:12;;;;;;;47.83;26.20;;;;;;;-0.02;99.26;101488.84;5088885;28;20028;-81
2022/01/10 05:00:37;;;;;;;59.00;27.30;;;;;;;-0.04;100.00;101488.88;5087665;28;20028;-81
2022/01/10 05:03:03;;;;;;;60.33;28.38;;;;;;;0.02;99.07;101503.47;5089113;28;20119;-81
2022/01/10 05:05:28;;;;;;;60.25;27.90;;;;;;;0.03;99.57;101515.50;5082828;28;20105;-81
2022/01/10 05:07:53;;;;;;;56.63;27.88;;;;;;;-0.03;99.56;101500.09;5083345;28;20118;-81
2022/01/10 05:10:22;;;;;;;48.47;27.75;;;;;;;0.06;99.24;101518.03;5088318;28;20028;-81
2022/01/10 05:12:47;;;;;;;53.13;28.85;;;;;;;0.06;99.58;101525.81;5078375;28;20058;-81
2022/01/10 05:15:13;;;;;;;57.30;28.25;;;;;;;0.03;99.89;101530.19;5086037;28;20055;-81
2022/01/10 05:17:38;;;;;;;53.95;29.27;;;;;;;0.08;99.55;101543.88;5087218;28;20035;-82
2022/01/10 05:20:05;;;;;;;56.90;28.88;;;;;;;0.06;99.75;101535.28;5078084;28;20037;-81
2022/01/10 05:22:30;;;;;;;50.92;28.65;;;;;;;0.05;99.41;101533.59;5069874;28;20094;-81
2022/01/10 05:24:55;;;;;;;58.03;29.02;;;;;;;0.04;100.00;101526.72;5073141;28;20476;-81
2022/01/10 05:27:21;;;;;;;62.40;29.75;;;;;;;0.10;100.00;101536.94;5089064;28;20031;-81
2022/01/10 05:29:46;;;;;;;56.58;29.80;;;;;;;0.11;100.00;101551.56;5089684;28;20020;-81
2022/01/10 05:32:12;;;;;;;59.05;29.70;;;;;;;0.16;99.47;101557.50;5088673;28;20504;-81
2022/01/10 05:34:38;;;;;;;54.50;29.67;;;;;;;0.13;99.90;101549.81;5089473;28;20028;-81
2022/01/10 05:37:03;;;;;;;55.17;29.48;;;;;;;0.17;99.96;101569.56;5076369;28;20024;-81
2022/01/10 05:39:28;;;;;;;60.22;30.60;;;;;;;0.21;100.00;101571.22;5084491;28;20027;-81
2022/01/10 05:41:54;;;;;;;59.60;30.02;;;;;;;0.17;99.71;101574.75;5080595;28;20188;-81
2022/01/10 05:44:19;;;;;;;57.45;29.23;;;;;;;0.18;100.00;101577.28;5087729;28;20024;-82
2022/01/10 05:46:46;;;;;;;56.80;29.40;;;;;;;0.22;100.00;101588.44;5069966;28;20115;-81
2022/01/10 05:49:13;;;;;;;57.33;30.10;;;;;;;0.18;99.94;101581.63;5069538;28;20427;-81
2022/01/10 05:51:39;;;;;;;55.22;29.88;;;;;;;0.18;100.00;101584.19;5085993;28;20032;-81
2022/01/10 05:54:06;;;;;;;58.08;29.90;;;;;;;0.20;100.00;101590.19;5087197;28;20058;-81
2022/01/10 05:56:32;;;;;;;55.88;29.75;;;;;;;0.18;100.00;101589.38;5072352;28;20558;-81
2022/01/10 05:58:58;;;;;;;63.67;30.55;;;;;;;0.21;99.70;101597.94;5095985;28;20741;-81
2022/01/10 06:01:23;;;;;;;63.83;30.77;;;;;;;0.20;100.00;101596.22;5081402;28;20024;-81
2022/01/10 06:03:49;;;;;;;61.55;30.17;;;;;;;0.24;100.00;101587.53;5086517;28;20020;-81
2022/01/10 06:06:14;;;;;;;55.17;30.17;;;;;;;0.24;99.92;101600.47;5088126;28;20043;-81
2022/01/10 06:08:39;;;;;;;59.90;30.33;;;;;;;0.25;99.74;101606.50;5102722;28;20031;-81
2022/01/10 06:11:05;;;;;;;58.72;29.80;;;;;;;0.26;99.62;101613.38;5087123;28;20472;-81
2022/01/10 06:13:30;;;;;;;63.85;30.35;;;;;;;0.27;100.00;101615.06;5087231;28;20133;-81
2022/01/10 06:15:55;;;;;;;53.38;29.85;;;;;;;0.30;100.00;101633.13;5087025;28;20051;-81
2022/01/10 06:18:21;;;;;;;60.33;30.27;;;;;;;0.29;99.59;101629.69;5077385;28;21472;-81
2022/01/10 06:20:46;;;;;;;56.30;29.55;;;;;;;0.30;99.83;101633.97;5069886;28;20459;-81
2022/01/10 06:23:12;;;;;;;54.38;30.60;;;;;;;0.27;100.00;101638.38;5069619;28;20012;-81
2022/01/10 06:25:39;;;;;;;59.80;31.27;;;;;;;0.31;100.00;101646.03;5069740;28;20552;-81
2022/01/10 06:28:05;;;;;;;57.58;30.15;;;;;;;0.31;100.00;101650.38;5070854;28;20040;-81
2022/01/10 06:30:30;;;;;;;57.38;31.25;;;;;;;0.27;99.73;101640.94;5073953;28;20028;-81
2022/01/10 06:32:56;;;;;;;57.80;30.92;;;;;;;0.27;100.00;101656.47;5081304;28;20044;-81
2022/01/10 06:35:21;;;;;;;56.10;30.55;;;;;;;0.31;100.00;101671.06;5090321;28;20019;-82
2022/01/10 06:37:46;;;;;;;53.92;31.00;;;;;;;0.29;99.98;101671.09;5091809;28;20034;-81
2022/01/10 06:40:12;;;;;;;53.97;32.63;;;;;;;0.30;100.00;101679.72;5084330;28;20024;-81
2022/01/10 06:42:38;;;;;;;61.38;31.95;;;;;;;0.33;100.00;101684.84;5087383;28;20052;-81
2022/01/10 06:45:04;;;;;;;54.63;30.80;;;;;;;0.29;100.00;101673.69;5092354;28;20053;-81
2022/01/10 06:47:29;;;;;;;54.22;31.88;;;;;;;0.29;99.82;101672.81;5090819;28;20032;-81
2022/01/10 06:49:54;;;;;;;59.28;31.65;;;;;;;0.36;100.00;101683.91;5090719;28;20020;-81
2022/01/10 06:52:20;;;;;;;57.83;32.08;;;;;;;0.38;100.00;101688.19;5091997;28;20481;-81
2022/01/10 06:54:45;;;;;;;56.97;31.88;;;;;;;0.33;100.00;101687.41;5107760;28;20058;-80
2022/01/10 06:57:13;;;;;;;51.92;32.22;;;;;;;0.37;100.00;101698.56;5088740;28;20487;-80
2022/01/10 06:59:39;;;;;;;59.80;32.58;;;;;;;0.36;100.00;101695.13;5084165;28;20464;-81
2022/01/10 07:02:04;;;;;;;57.33;31.17;;;;;;;0.37;100.00;101702.00;5072997;28;20063;-81
2022/01/10 07:04:30;;;;;;;61.70;31.63;;;;;;;0.39;100.00;101715.78;5075106;28;20383;-80
2022/01/10 07:06:55;;;;;;;56.92;31.38;;;;;;;0.37;99.98;101719.28;5083121;28;20032;-80
2022/01/10 07:09:21;;;;;;;51.70;30.67;;;;;;;0.39;100.00;101738.22;5083093;28;20077;-80
2022/01/10 07:11:47;;;;;;;57.97;30.77;;;;;;;0.38;100.00;101734.78;5091117;28;20020;-81
2022/01/10 07:14:14;;;;;;;57.42;31.08;;;;;;;0.38;100.00;101731.34;5089467;28;20491;-80
2022/01/10 07:16:41;;;;;;;57.38;32.42;;;;;;;0.37;100.00;101740.84;5091548;28;20032;-80
2022/01/10 07:19:07;;;;;;;55.63;32.05;;;;;;;0.41;100.00;101750.28;5084598;28;20031;-81
2022/01/10 07:21:33;;;;;;;58.10;31.25;;;;;;;0.40;100.00;101743.41;5087519;28;20021;-81
2022/01/10 07:23:58;;;;;;;55.33;30.70;;;;;;;0.45;100.00;101757.09;5082808;28;20104;-81
2022/01/10 07:26:24;;;;;;;53.35;29.02;;;;;;;0.44;100.00;101765.75;5100661;28;20498;-81
2022/01/10 07:28:50;;;;;;;59.80;31.15;;;;;;;0.43;100.00;101782.16;5083146;28;20432;-83
2022/01/10 07:31:15;;;;;;;60.13;31.40;;;;;;;0.43;100.00;101781.31;5082561;28;20028;-81
2022/01/10 07:33:41;;;;;;;61.45;31.10;;;;;;;0.44;99.47;101791.66;5083747;28;20051;-81
2022/01/10 07:36:06;;;;;;;56.95;30.60;;;;;;;0.43;100.00;101795.13;5083925;28;20028;-81
2022/01/10 07:38:35;;;;;;;53.05;30.70;;;;;;;0.41;99.85;101796.03;5083832;28;20079;-81
2022/01/10 07:41:03;;;;;;;53.40;30.65;;;;;;;0.41;100.00;101804.63;5082616;28;20028;-82
2022/01/10 07:43:28;;;;;;;53.85;29.63;;;;;;;0.39;100.00;101806.38;5084885;28;20038;-81
2022/01/10 07:45:53;;;;;;;55.60;30.52;;;;;;;0.38;99.74;101811.56;5085855;28;20422;-81
2022/01/10 07:48:30;;;;;;;54.53;30.48;;;;;;;0.41;99.60;101825.34;5072953;28;20054;-82
2022/01/10 07:50:55;;;;;;;56.55;30.42;;;;;;;0.38;100.00;101824.50;5083727;28;20020;-82
2022/01/10 07:53:21;;;;;;;53.50;31.20;;;;;;;0.41;99.61;101840.88;5082671;28;20024;-83
2022/01/10 07:55:46;;;;;;;52.47;30.02;;;;;;;0.39;99.97;101840.03;5075864;28;20051;-82
2022/01/10 07:58:12;;;;;;;54.53;31.05;;;;;;;0.38;99.65;101837.47;5075387;28;20586;-82
2022/01/10 08:00:37;;;;;;;54.15;30.50;;;;;;;0.43;100.00;101854.66;5104568;28;20035;-84
2022/01/10 08:03:03;;;;;;;54.85;30.88;;;;;;;0.44;99.95;101858.94;5088197;28;20028;-84
2022/01/10 08:05:28;;;;;;;56.42;29.70;;;;;;;0.44;99.80;101863.28;5088197;28;20540;-84
2022/01/10 08:07:54;;;;;;;54.83;31.65;;;;;;;0.46;99.72;101874.47;5088792;28;20033;-84
2022/01/10 08:10:20;;;;;;;57.45;31.45;;;;;;;0.44;99.25;101877.06;5090635;28;20056;-84
2022/01/10 08:12:45;;;;;;;61.22;31.63;;;;;;;0.42;99.57;101875.38;5088210;28;20395;-84
2022/01/10 08:15:13;;;;;;;60.40;32.75;;;;;;;0.43;99.16;101880.53;5090261;28;20031;-84
2022/01/10 08:17:39;;;;;;;57.72;32.08;;;;;;;0.40;98.84;101883.19;5074175;28;20024;-81
2022/01/10 08:20:05;;;;;;;56.35;30.83;;;;;;;0.41;99.67;101884.88;5089550;28;20048;-82
2022/01/10 08:22:31;;;;;;;60.50;31.35;;;;;;;0.41;99.64;101884.03;5082570;28;20652;-81
2022/01/10 08:24:56;;;;;;;55.35;31.92;;;;;;;0.43;99.74;101900.41;5087769;28;20508;-81
2022/01/10 08:27:22;;;;;;;52.03;30.23;;;;;;;0.43;99.43;101901.25;5088476;28;20066;-83
2022/01/10 08:29:48;;;;;;;58.10;32.08;;;;;;;0.44;99.84;101902.09;5089551;28;20179;-82
2022/01/10 08:32:14;;;;;;;56.10;30.98;;;;;;;0.44;99.83;101908.13;5088293;28;20043;-82
2022/01/10 08:34:40;;;;;;;60.08;30.98;;;;;;;0.43;99.27;101914.19;5088501;28;20498;-81
2022/01/10 08:37:05;;;;;;;58.50;30.83;;;;;;;0.47;99.63;101926.22;5077473;28;20032;-80
2022/01/10 08:39:31;;;;;;;61.28;32.92;;;;;;;0.49;99.96;101933.94;5077133;28;20051;-80
2022/01/10 08:41:56;;;;;;;54.20;30.90;;;;;;;0.48;99.62;101943.44;5087484;28;20024;-80
2022/01/10 08:44:22;;;;;;;54.03;30.63;;;;;;;0.48;99.37;101943.44;5089345;28;20069;-82
2022/01/10 08:46:47;;;;;;;56.28;30.70;;;;;;;0.48;99.43;101948.63;5082274;28;20478;-80
2022/01/10 08:49:14;;;;;;;53.95;29.70;;;;;;;0.44;99.13;101949.56;5068985;28;20541;-80
2022/01/10 08:51:41;;;;;;;53.40;29.83;;;;;;;0.45;99.30;101953.84;5085825;28;20035;-80
2022/01/10 08:54:06;;;;;;;57.20;30.42;;;;;;;0.48;99.60;101968.50;5080588;28;20182;-80
2022/01/10 08:56:32;;;;;;;52.22;29.50;;;;;;;0.49;99.34;101971.06;5079699;28;20809;-81
2022/01/10 08:58:58;;;;;;;55.08;29.75;;;;;;;0.49;99.39;101976.22;5080841;28;20406;-80
2022/01/10 09:01:24;;;;;;;53.80;29.83;;;;;;;0.50;99.10;101977.94;5080540;28;20027;-82
2022/01/10 09:03:50;;;;;;;58.83;30.20;;;;;;;0.47;98.86;101977.97;5081364;28;20033;-82
2022/01/10 09:06:18;;;;;;;53.72;30.15;;;;;;;0.51;99.69;101992.59;5089072;28;20024;-81
2022/01/10 09:08:46;;;;;;;53.22;29.95;;;;;;;0.50;99.75;101987.44;5088258;28;20032;-82
2022/01/10 09:11:15;;;;;;;56.50;30.20;;;;;;;0.54;99.91;101994.28;5096743;28;20032;-82
2022/01/10 09:13:40;;;;;;;54.47;29.17;;;;;;;0.57;99.55;101997.69;5088652;28;20031;-82
2022/01/10 09:16:07;;;;;;;50.63;29.52;;;;;;;0.59;100.00;102002.84;5085093;28;20032;-82
2022/01/10 09:18:33;;;;;;;52.15;29.83;;;;;;;0.59;99.24;102011.47;5104932;28;20024;-82
2022/01/10 09:20:59;;;;;;;54.03;29.77;;;;;;;0.58;99.86;101998.53;5089284;28;20087;-82
2022/01/10 09:23:25;;;;;;;52.33;29.15;;;;;;;0.61;99.86;102007.13;5084949;28;20028;-82
2022/01/10 09:25:50;;;;;;;47.00;27.60;;;;;;;0.59;99.05;102002.84;5085168;28;20534;-82
2022/01/10 09:28:18;;;;;;;52.58;27.95;;;;;;;0.58;98.93;102008.91;5086791;28;20060;-82
2022/01/10 09:30:43;;;;;;;50.40;28.05;;;;;;;0.57;98.72;102020.13;5083384;28;20024;-82
2022/01/10 09:33:08;;;;;;;50.28;28.00;;;;;;;0.55;98.86;102021.88;5080929;28;20052;-81
2022/01/10 09:35:34;;;;;;;54.55;30.17;;;;;;;0.54;98.43;102020.19;5075521;28;20024;-81
2022/01/10 09:38:00;;;;;;;49.28;29.52;;;;;;;0.57;99.04;102021.00;5084423;28;20495;-82
2022/01/10 09:40:25;;;;;;;57.65;30.20;;;;;;;0.59;99.50;102024.41;5087867;28;20035;-81
2022/01/10 09:42:51;;;;;;;55.30;29.77;;;;;;;0.54;99.03;102018.44;5087988;28;20042;-81
2022/01/10 09:45:17;;;;;;;52.72;29.17;;;;;;;0.57;98.60;102033.94;5084942;28;20024;-81
2022/01/10 09:47:42;;;;;;;51.30;29.10;;;;;;;0.58;99.03;102039.97;5087100;28;20484;-83
2022/01/10 09:50:10;;;;;;;53.30;27.77;;;;;;;0.58;99.37;102038.22;5079215;28;20469;-80
2022/01/10 09:52:38;;;;;;;47.47;26.85;;;;;;;0.59;98.45;102042.53;5077680;28;20490;-81
2022/01/10 09:55:04;;;;;;;47.67;26.05;;;;;;;0.60;98.85;102051.16;5082901;28;20127;-80
2022/01/10 09:57:29;;;;;;;48.35;25.20;;;;;;;0.60;99.13;102046.84;5077617;28;20036;-80
2022/01/10 09:59:56;;;;;;;46.58;26.35;;;;;;;0.62;98.85;102052.84;5081301;28;20027;-80
2022/01/10 10:02:21;;;;;;;48.13;26.65;;;;;;;0.65;98.59;102058.88;5081469;28;20027;-80
2022/01/10 10:04:46;;;;;;;47.72;26.13;;;;;;;0.71;99.22;102066.53;5076503;28;20032;-81
2022/01/10 10:07:13;;;;;;;45.03;25.00;;;;;;;0.76;99.57;102067.34;5091849;28;20089;-81
2022/01/10 10:09:39;;;;;;;49.60;26.35;;;;;;;0.75;99.43;102076.84;5077833;28;20033;-81
2022/01/10 10:12:05;;;;;;;45.38;25.80;;;;;;;0.82;99.61;102081.09;5084496;28;20035;-81
2022/01/10 10:14:31;;;;;;;50.10;26.02;;;;;;;0.87;99.36;102100.00;5081462;28;20051;-81
2022/01/10 10:17:06;;;;;;;47.92;25.70;;;;;;;0.90;99.77;102099.97;5082857;28;20028;-81
2022/01/10 10:19:31;;;;;;;47.75;25.48;;;;;;;0.93;99.50;102102.50;5093835;28;20566;-80
2022/01/10 10:21:58;;;;;;;43.88;24.80;;;;;;;1.00;99.06;102112.78;5078919;28;20032;-81
2022/01/10 10:24:25;;;;;;;45.33;25.25;;;;;;;1.04;99.58;102120.50;5079204;28;20035;-81
2022/01/10 10:26:51;;;;;;;51.15;25.58;;;;;;;1.09;99.26;102129.06;5078229;28;20024;-81
2022/01/10 10:29:18;;;;;;;46.05;26.17;;;;;;;1.10;99.55;102130.78;5074181;28;20031;-80
2022/01/10 10:31:47;;;;;;;51.42;26.63;;;;;;;1.16;99.83;102125.50;5080085;28;20024;-80
2022/01/10 10:34:20;;;;;;;48.65;26.58;;;;;;;1.22;99.84;102129.75;5087737;28;20031;-80
2022/01/10 10:36:57;;;;;;;46.88;25.75;;;;;;;1.22;100.00;102125.44;5103967;28;20511;-80
2022/01/10 10:39:25;;;;;;;47.67;25.65;;;;;;;1.30;100.00;102127.06;5103834;28;20030;-81
2022/01/10 10:41:54;;;;;;;47.78;25.17;;;;;;;1.33;99.93;102132.19;5078069;28;20025;-80
2022/01/10 10:44:21;;;;;;;43.35;24.75;;;;;;;1.37;99.52;102141.63;5087925;28;20047;-81
2022/01/10 10:46:47;;;;;;;40.30;23.65;;;;;;;1.39;99.33;102142.47;5080735;28;20024;-80
2022/01/10 10:49:14;;;;;;;45.50;24.30;;;;;;;1.41;99.14;102148.47;5073322;28;20031;-80
2022/01/10 10:51:39;;;;;;;45.25;23.05;;;;;;;1.44;98.46;102145.84;5079764;28;20051;-80
2022/01/10 10:54:09;;;;;;;48.17;24.52;;;;;;;1.51;99.55;102142.25;5073554;28;20055;-80
2022/01/10 10:56:38;;;;;;;43.25;23.92;;;;;;;1.55;99.47;102143.91;5095868;28;20021;-81
2022/01/10 10:59:07;;;;;;;44.78;24.13;;;;;;;1.58;98.95;102134.34;5084938;28;20090;-81
2022/01/10 11:01:36;;;;;;;45.50;23.75;;;;;;;1.64;98.55;102146.41;5098023;28;20028;-81
2022/01/10 11:04:03;;;;;;;46.40;23.45;;;;;;;1.70;99.19;102148.03;5087464;28;20554;-79
2022/01/10 11:06:33;;;;;;;41.50;23.45;;;;;;;1.74;98.48;102160.91;5087675;28;20022;-79
2022/01/10 11:09:04;;;;;;;46.63;24.20;;;;;;;1.79;98.68;102159.09;5080083;28;20515;-79
2022/01/10 11:11:30;;;;;;;48.05;25.13;;;;;;;1.87;98.63;102172.81;5086748;28;20023;-79
2022/01/10 11:13:58;;;;;;;49.85;24.38;;;;;;;1.95;98.93;102174.41;5084609;28;20036;-79
2022/01/10 11:16:24;;;;;;;49.35;24.88;;;;;;;2.00;98.53;102172.59;5075469;28;20020;-79